Time;durP1;ratioP1;P1;durP2;ratioP2;P2;SDS_P1;SDS_P2;PMS_P1;PMS_P2;Temp;Humidity;BMP_temperature;BMP_pressure;BME280_temperature;BME280_humidity;BME280_pressure;Samples;Min_cycle;Max_cycle;Signal;HPM_P1;HPM_P2
2022/09/22 00:01:50;;;;;;;10.50;5.28;;;20.80;62.00;;;;;;6142769;28;80538;-48
2022/09/22 00:04:51;;;;;;;8.38;4.80;;;20.90;61.40;;;;;;6139242;28;83267;-51
2022/09/22 00:07:52;;;;;;;9.63;5.07;;;20.90;61.30;;;;;;6136249;28;81070;-49
2022/09/22 00:10:52;;;;;;;10.68;5.65;;;20.90;61.40;;;;;;6137429;28;80757;-50
2022/09/22 00:13:53;;;;;;;7.82;5.35;;;20.90;61.30;;;;;;6147557;28;82968;-51
2022/09/22 00:16:53;;;;;;;8.77;5.63;;;20.90;62.00;;;;;;6150105;28;79998;-52
2022/09/22 00:19:54;;;;;;;9.65;5.55;;;20.90;61.30;;;;;;6151065;28;80741;-51
2022/09/22 00:22:54;;;;;;;11.07;5.25;;;20.90;61.50;;;;;;6153615;28;83773;-50
2022/09/22 00:25:55;;;;;;;10.18;5.43;;;20.90;61.40;;;;;;6132245;28;80961;-47
2022/09/22 00:38:55;;;;;;;12.10;5.32;;;20.90;61.40;;;;;;6126524;28;84391;-59
2022/09/22 00:41:55;;;;;;;9.25;4.95;;;20.90;61.50;;;;;;6175373;28;80787;-59
2022/09/22 00:44:56;;;;;;;9.35;5.25;;;20.80;61.40;;;;;;6173903;28;82844;-59
2022/09/22 00:47:56;;;;;;;10.52;5.30;;;20.90;61.40;;;;;;6175869;28;80922;-59
2022/09/22 00:50:57;;;;;;;7.70;5.25;;;20.90;61.90;;;;;;6172325;28;80978;-59
2022/09/22 00:53:57;;;;;;;7.40;4.85;;;20.90;61.30;;;;;;6174829;28;80453;-58
2022/09/22 00:56:58;;;;;;;8.43;5.47;;;20.80;61.30;;;;;;6174129;28;82609;-59
2022/09/22 00:59:58;;;;;;;9.57;5.45;;;20.80;61.30;;;;;;6163622;28;81198;-58
2022/09/22 01:02:59;;;;;;;11.82;5.43;;;20.90;61.30;;;;;;6150999;28;84148;-58
2022/09/22 01:05:59;;;;;;;8.73;4.97;;;20.90;61.40;;;;;;6169816;28;81865;-59
2022/09/22 01:09:00;;;;;;;8.80;5.03;;;20.80;61.30;;;;;;6176161;28;80451;-59
2022/09/22 01:12:00;;;;;;;10.27;5.13;;;20.80;61.30;;;;;;6173102;28;81462;-52
2022/09/22 01:15:01;;;;;;;9.40;5.65;;;20.90;61.30;;;;;;6173788;28;80478;-50
2022/09/22 01:18:01;;;;;;;9.27;5.38;;;20.80;61.30;;;;;;6177237;28;83422;-48
2022/09/22 01:21:02;;;;;;;8.50;5.10;;;20.80;61.30;;;;;;6173199;28;80330;-48
2022/09/22 01:24:02;;;;;;;11.95;5.93;;;20.80;61.30;;;;;;6174096;28;84026;-51
2022/09/22 01:27:02;;;;;;;6.93;4.50;;;20.80;61.20;;;;;;6174365;28;81225;-48
2022/09/22 01:30:03;;;;;;;11.20;5.28;;;20.90;61.20;;;;;;6165256;28;80626;-58
2022/09/22 01:33:03;;;;;;;10.70;5.82;;;20.90;61.20;;;;;;6171937;28;80380;-59
2022/09/22 01:36:04;;;;;;;10.32;5.82;;;20.90;61.20;;;;;;6172656;28;80494;-59
2022/09/22 01:39:04;;;;;;;8.20;4.75;;;20.80;61.10;;;;;;6161493;28;80401;-59
2022/09/22 01:42:05;;;;;;;12.95;5.95;;;20.90;61.10;;;;;;6152854;28;81091;-58
2022/09/22 01:45:05;;;;;;;9.02;5.30;;;20.80;61.20;;;;;;6159745;28;80113;-59
2022/09/22 01:48:07;;;;;;;11.40;5.00;;;20.80;61.00;;;;;;6155265;28;81331;-58
2022/09/22 01:51:08;;;;;;;10.50;5.75;;;20.80;61.10;;;;;;6151754;28;80676;-58
2022/09/22 01:54:08;;;;;;;9.52;5.15;;;20.90;61.00;;;;;;6161389;28;81002;-58
2022/09/22 01:57:10;;;;;;;6.65;5.10;;;20.80;61.00;;;;;;6166093;28;81114;-58
2022/09/22 02:00:10;;;;;;;8.82;5.50;;;20.80;61.00;;;;;;6151095;28;81947;-58
2022/09/22 02:03:13;;;;;;;9.30;5.53;;;20.90;61.10;;;;;;6174388;28;80262;-59
2022/09/22 02:06:14;;;;;;;11.45;5.88;;;20.80;61.00;;;;;;6160563;28;80365;-60
2022/09/22 02:09:14;;;;;;;7.60;5.15;;;20.80;61.00;;;;;;6165615;28;82004;-59
2022/09/22 02:12:17;;;;;;;9.40;5.20;;;20.80;61.10;;;;;;6161205;28;80396;-59
2022/09/22 02:18:36;;;;;;;8.43;4.97;;;20.80;61.10;;;;;;6171949;28;82297;-59
2022/09/22 02:21:37;;;;;;;8.15;5.50;;;20.80;61.10;;;;;;6173714;28;83453;-59
2022/09/22 02:24:37;;;;;;;7.53;5.38;;;20.80;61.10;;;;;;6174094;28;81146;-59
2022/09/22 02:27:40;;;;;;;10.95;5.82;;;20.80;61.00;;;;;;6169819;28;81291;-60
2022/09/22 02:30:41;;;;;;;8.57;5.13;;;20.80;61.00;;;;;;6165997;28;81034;-60
2022/09/22 02:33:41;;;;;;;14.10;5.00;;;20.80;61.10;;;;;;6177164;28;86166;-60
2022/09/22 02:36:42;;;;;;;9.63;5.22;;;20.80;61.10;;;;;;6173968;28;80663;-60
2022/09/22 02:39:42;;;;;;;8.70;4.82;;;20.80;61.00;;;;;;6173129;28;81344;-58
2022/09/22 02:42:43;;;;;;;11.85;5.57;;;20.80;61.10;;;;;;6173269;28;81013;-57
2022/09/22 02:45:43;;;;;;;8.85;5.07;;;20.80;61.10;;;;;;6177122;28;80562;-53
2022/09/22 02:48:44;;;;;;;10.38;5.63;;;20.80;61.10;;;;;;6171005;28;80665;-57
2022/09/22 02:51:45;;;;;;;9.50;6.07;;;20.80;61.10;;;;;;6177657;28;80410;-57
2022/09/22 02:54:45;;;;;;;8.35;5.22;;;20.80;61.00;;;;;;6168636;28;81275;-57
2022/09/22 02:57:46;;;;;;;8.85;5.28;;;20.80;60.90;;;;;;6178371;28;80434;-57
2022/09/22 03:00:47;;;;;;;13.32;5.63;;;20.80;61.00;;;;;;6174818;28;80452;-61
2022/09/22 03:03:47;;;;;;;8.02;5.15;;;20.80;61.10;;;;;;6178728;28;80556;-60
2022/09/22 03:06:48;;;;;;;7.80;5.25;;;20.80;61.00;;;;;;6177448;28;80680;-60
2022/09/22 03:09:48;;;;;;;8.88;5.00;;;20.80;60.90;;;;;;6179377;28;81601;-61
2022/09/22 03:12:49;;;;;;;10.73;5.55;;;20.80;60.90;;;;;;6179673;28;80838;-61
2022/09/22 03:15:49;;;;;;;8.77;5.35;;;20.80;61.00;;;;;;6171840;28;80497;-60
2022/09/22 03:18:50;;;;;;;9.32;5.10;;;20.80;60.90;;;;;;6174008;28;80188;-56
2022/09/22 03:21:50;;;;;;;10.85;5.22;;;20.90;60.80;;;;;;6179785;28;81625;-56
2022/09/22 03:24:51;;;;;;;8.55;5.38;;;20.80;60.80;;;;;;6177297;28;80856;-56
2022/09/22 03:27:51;;;;;;;10.30;5.30;;;20.80;60.80;;;;;;6173540;28;80302;-57
2022/09/22 03:30:52;;;;;;;9.52;4.53;;;20.80;60.60;;;;;;6169551;28;80291;-57
2022/09/22 03:33:52;;;;;;;12.77;5.00;;;20.80;60.60;;;;;;6162169;28;80851;-57
2022/09/22 03:36:53;;;;;;;10.52;5.85;;;20.80;60.70;;;;;;6170301;28;82934;-57
2022/09/22 03:39:53;;;;;;;11.20;5.15;;;20.80;60.60;;;;;;6174692;28;80481;-57
2022/09/22 03:42:54;;;;;;;8.63;4.90;;;20.80;60.70;;;;;;6164636;28;85451;-58
2022/09/22 03:45:54;;;;;;;8.13;4.72;;;20.80;60.60;;;;;;6165620;28;82386;-57
2022/09/22 03:48:55;;;;;;;8.15;4.88;;;20.90;61.30;;;;;;6167304;28;83456;-56
2022/09/22 03:51:56;;;;;;;10.77;5.43;;;20.80;60.70;;;;;;6165955;28;82085;-56
2022/09/22 03:54:56;;;;;;;8.25;4.55;;;20.80;60.60;;;;;;6176056;28;80682;-51
2022/09/22 03:57:57;;;;;;;9.48;5.40;;;20.90;60.70;;;;;;6174430;28;81782;-48
2022/09/22 04:00:57;;;;;;;7.88;4.72;;;20.80;60.50;;;;;;6164942;28;81572;-50
2022/09/22 04:03:58;;;;;;;8.77;5.32;;;20.80;60.50;;;;;;6167548;28;80323;-50
2022/09/22 04:06:58;;;;;;;7.57;4.60;;;20.80;60.60;;;;;;6157968;28;81031;-51
2022/09/22 04:09:59;;;;;;;9.82;5.25;;;20.80;60.60;;;;;;6165297;28;83377;-53
2022/09/22 04:12:59;;;;;;;4.95;4.07;;;20.80;60.60;;;;;;6167120;28;81991;-59
2022/09/22 04:16:00;;;;;;;9.77;5.22;;;20.80;61.20;;;;;;6174967;28;82829;-59
2022/09/22 04:19:01;;;;;;;10.38;4.90;;;20.80;60.60;;;;;;6164468;28;82329;-60
2022/09/22 04:22:02;;;;;;;9.45;4.53;;;20.80;60.60;;;;;;6175528;28;80362;-60
2022/09/22 04:25:02;;;;;;;8.82;5.25;;;20.80;60.50;;;;;;6172317;28;80253;-59
2022/09/22 04:28:03;;;;;;;9.70;4.80;;;20.80;60.60;;;;;;6159740;28;82087;-60
2022/09/22 04:31:03;;;;;;;6.70;4.60;;;20.80;60.60;;;;;;6162094;28;80911;-47
2022/09/22 04:34:04;;;;;;;12.70;5.22;;;20.80;60.80;;;;;;6160362;28;81371;-58
2022/09/22 04:37:04;;;;;;;12.07;4.72;;;20.80;60.80;;;;;;6155728;28;80597;-58
2022/09/22 04:40:04;;;;;;;10.77;5.38;;;20.80;60.90;;;;;;6168338;28;80716;-56
2022/09/22 04:43:05;;;;;;;9.45;4.90;;;20.80;60.70;;;;;;6176105;28;82059;-55
2022/09/22 04:46:05;;;;;;;10.93;4.68;;;20.80;60.90;;;;;;6174108;28;80712;-57
2022/09/22 04:49:07;;;;;;;11.82;5.65;;;20.80;61.10;;;;;;6169616;28;80768;-58
2022/09/22 04:52:08;;;;;;;12.15;4.60;;;20.80;61.40;;;;;;6172516;28;80958;-48
2022/09/22 04:55:10;;;;;;;11.75;4.97;;;20.90;61.40;;;;;;6175898;28;81920;-51
2022/09/22 04:58:10;;;;;;;6.63;4.53;;;20.90;61.30;;;;;;6174355;28;81511;-52
2022/09/22 05:01:11;;;;;;;9.00;4.90;;;20.90;61.50;;;;;;6168675;28;80895;-47
2022/09/22 05:04:11;;;;;;;15.18;4.80;;;20.90;61.40;;;;;;6175139;28;80377;-46
2022/09/22 05:07:12;;;;;;;7.72;4.65;;;20.90;61.50;;;;;;6174345;28;81426;-47
2022/09/22 05:10:12;;;;;;;9.85;4.95;;;20.90;61.40;;;;;;6178534;28;80917;-53
2022/09/22 05:13:13;;;;;;;12.10;4.57;;;20.90;61.50;;;;;;6173196;28;83307;-57
2022/09/22 05:16:14;;;;;;;10.85;4.85;;;21.00;61.50;;;;;;6178352;28;80805;-56
2022/09/22 05:19:15;;;;;;;6.07;4.15;;;20.90;61.40;;;;;;6174863;28;80254;-56
2022/09/22 05:22:16;;;;;;;7.07;4.07;;;20.90;61.50;;;;;;6159807;28;81661;-58
2022/09/22 05:25:16;;;;;;;13.98;4.53;;;20.90;61.50;;;;;;6162261;28;80400;-56
2022/09/22 05:28:18;;;;;;;6.10;4.40;;;20.90;61.40;;;;;;6152678;28;80881;-58
2022/09/22 05:31:18;;;;;;;7.20;3.92;;;20.90;61.40;;;;;;6170502;28;87199;-57
2022/09/22 05:34:19;;;;;;;8.02;4.05;;;20.90;61.50;;;;;;6160886;28;85291;-59
2022/09/22 05:37:19;;;;;;;10.02;5.13;;;20.90;61.30;;;;;;6161437;28;80961;-59
2022/09/22 05:40:22;;;;;;;9.20;4.88;;;20.90;61.20;;;;;;6168325;28;80519;-60
2022/09/22 05:43:23;;;;;;;7.68;4.60;;;20.90;61.00;;;;;;6160429;28;80799;-59
2022/09/22 05:46:23;;;;;;;8.73;4.75;;;20.90;60.80;;;;;;6159526;28;80923;-59
2022/09/22 05:49:24;;;;;;;9.95;4.60;;;20.90;60.70;;;;;;6153031;28;80266;-59
2022/09/22 05:52:24;;;;;;;9.77;4.53;;;20.90;60.70;;;;;;6152496;28;80582;-59
2022/09/22 05:55:25;;;;;;;7.20;4.68;;;20.90;60.60;;;;;;6152564;28;85616;-58
2022/09/22 05:58:25;;;;;;;9.40;4.90;;;20.90;60.30;;;;;;6158661;28;81580;-57
2022/09/22 06:01:25;;;;;;;11.13;5.22;;;20.90;60.30;;;;;;6155824;28;85838;-58
2022/09/22 06:04:26;;;;;;;8.05;5.07;;;20.90;60.10;;;;;;6150134;28;80778;-58
2022/09/22 06:07:26;;;;;;;9.57;4.82;;;20.90;60.30;;;;;;6156455;28;85423;-58
2022/09/22 06:10:27;;;;;;;9.38;4.88;;;20.90;60.20;;;;;;6157523;28;80792;-58
2022/09/22 06:13:28;;;;;;;9.82;4.53;;;20.90;59.90;;;;;;6163267;28;81934;-57
2022/09/22 06:16:29;;;;;;;8.45;4.88;;;20.90;59.90;;;;;;6151036;28;80571;-59
2022/09/22 06:19:29;;;;;;;7.32;4.53;;;20.90;59.90;;;;;;6157899;28;80578;-58
2022/09/22 06:22:30;;;;;;;6.95;4.43;;;20.90;59.80;;;;;;6158725;28;80371;-59
2022/09/22 06:25:31;;;;;;;8.57;4.13;;;21.00;59.80;;;;;;6149570;28;80190;-58
2022/09/22 06:28:31;;;;;;;8.65;4.18;;;20.90;59.70;;;;;;6155910;28;80317;-58
2022/09/22 06:31:32;;;;;;;7.45;4.28;;;20.90;59.70;;;;;;6157984;28;80938;-57
2022/09/22 06:34:32;;;;;;;9.82;5.28;;;20.90;59.60;;;;;;6156854;28;82104;-60
2022/09/22 06:37:37;;;;;;;7.93;4.47;;;21.00;59.50;;;;;;6157808;28;82308;-59
2022/09/22 06:40:37;;;;;;;11.88;3.92;;;20.90;59.50;;;;;;6155251;28;81935;-59
2022/09/22 06:43:38;;;;;;;7.10;4.30;;;20.90;59.30;;;;;;6163272;28;80705;-59
2022/09/22 06:46:38;;;;;;;7.32;4.10;;;20.90;59.40;;;;;;6172753;28;87024;-59
2022/09/22 06:49:41;;;;;;;6.50;4.40;;;20.90;59.10;;;;;;6172910;28;80338;-58
2022/09/22 06:52:41;;;;;;;10.93;3.95;;;20.90;59.10;;;;;;6169780;28;81364;-58
2022/09/22 06:55:42;;;;;;;9.90;4.07;;;20.90;59.10;;;;;;6156154;28;83266;-57
2022/09/22 06:58:44;;;;;;;8.52;4.82;;;20.90;59.00;;;;;;6154525;28;81066;-56
2022/09/22 07:01:44;;;;;;;6.78;4.22;;;20.90;59.00;;;;;;6157253;28;81036;-61
2022/09/22 07:04:47;;;;;;;6.63;3.75;;;20.90;58.80;;;;;;6159354;28;81178;-62
2022/09/22 07:07:47;;;;;;;9.50;3.85;;;20.90;58.80;;;;;;6159646;28;80393;-63
2022/09/22 07:10:47;;;;;;;6.68;3.80;;;20.90;58.80;;;;;;6159793;28;85235;-61
2022/09/22 07:13:48;;;;;;;6.20;3.78;;;20.90;58.60;;;;;;6158548;28;81247;-61
2022/09/22 07:16:50;;;;;;;8.05;4.07;;;21.00;58.60;;;;;;6157687;28;80575;-58
2022/09/22 07:19:55;;;;;;;7.43;3.50;;;20.90;58.90;;;;;;6159067;28;86798;-59
2022/09/22 07:22:59;;;;;;;6.22;3.95;;;20.90;58.50;;;;;;6172632;28;81227;-56
2022/09/22 07:26:01;;;;;;;4.88;3.53;;;20.90;58.70;;;;;;6162283;28;81125;-58
2022/09/22 07:29:01;;;;;;;8.25;4.05;;;20.90;58.70;;;;;;6169782;28;80437;-59
2022/09/22 07:32:02;;;;;;;8.35;4.00;;;20.90;58.50;;;;;;6170522;28;80821;-58
2022/09/22 07:35:03;;;;;;;182.70;62.65;;;20.90;58.50;;;;;;6155944;28;80430;-60
2022/09/22 07:38:03;;;;;;;383.67;130.02;;;20.90;58.70;;;;;;6164697;28;86759;-62
2022/09/22 07:41:05;;;;;;;628.05;262.45;;;21.00;58.50;;;;;;6148887;28;85245;-58
2022/09/22 07:50:44;;;;;;;476.60;182.70;;;21.10;58.20;;;;;;6161588;28;85466;-57
2022/09/22 07:53:45;;;;;;;515.25;183.18;;;21.20;58.20;;;;;;6162758;28;92381;-58
2022/09/22 07:56:45;;;;;;;593.33;259.73;;;21.20;58.40;;;;;;6169273;28;86117;-57
2022/09/22 07:59:46;;;;;;;623.97;266.55;;;21.10;58.10;;;;;;6167517;28;85371;-57
2022/09/22 08:02:46;;;;;;;625.70;280.92;;;21.10;58.10;;;;;;6167913;28;86456;-58
2022/09/22 08:05:52;;;;;;;556.35;229.50;;;21.10;58.10;;;;;;6158479;28;85601;-58
2022/09/22 08:08:52;;;;;;;511.50;205.55;;;21.10;58.20;;;;;;6171824;28;87067;-58
2022/09/22 08:11:53;;;;;;;451.50;184.77;;;21.10;58.30;;;;;;6170996;28;85563;-60
2022/09/22 08:14:56;;;;;;;433.17;158.57;;;21.20;58.30;;;;;;6160974;28;86365;-57
2022/09/22 08:17:57;;;;;;;392.63;151.68;;;21.20;58.40;;;;;;6173139;28;88386;-59
2022/09/22 08:20:59;;;;;;;337.95;130.02;;;21.20;58.30;;;;;;6162547;28;91858;-59
2022/09/22 08:23:59;;;;;;;344.90;122.80;;;21.20;58.20;;;;;;6167335;28;87395;-57
2022/09/22 08:27:00;;;;;;;306.45;117.63;;;21.20;58.30;;;;;;6165209;28;89148;-58
2022/09/22 08:30:00;;;;;;;293.40;105.85;;;21.20;58.20;;;;;;6148200;28;86817;-59
2022/09/22 08:33:01;;;;;;;249.13;96.65;;;21.10;58.20;;;;;;6164054;28;85533;-58
2022/09/22 08:36:02;;;;;;;249.52;94.50;;;21.20;58.20;;;;;;6161050;28;84015;-58
2022/09/22 08:39:02;;;;;;;215.45;85.65;;;21.20;58.20;;;;;;6155103;28;88794;-58
2022/09/22 08:42:04;;;;;;;215.95;80.10;;;21.20;58.20;;;;;;6160707;28;83367;-59
2022/09/22 08:45:05;;;;;;;214.13;77.55;;;21.20;58.20;;;;;;6158064;28;83427;-57
2022/09/22 08:54:45;;;;;;;158.07;58.58;;;21.30;57.90;;;;;;6174559;28;83933;-58
2022/09/22 08:57:45;;;;;;;133.73;54.47;;;21.40;57.90;;;;;;6170695;28;84156;-58
2022/09/22 09:00:45;;;;;;;135.57;52.67;;;21.40;57.80;;;;;;6168805;28;83328;-59
2022/09/22 09:03:46;;;;;;;127.05;49.67;;;21.40;58.10;;;;;;6171309;28;83593;-59
2022/09/22 09:06:47;;;;;;;125.30;47.75;;;21.50;57.90;;;;;;6157765;28;85795;-62
2022/09/22 09:09:47;;;;;;;120.95;43.75;;;21.60;57.80;;;;;;6173898;28;83023;-59
2022/09/22 09:12:48;;;;;;;122.72;40.70;;;21.60;57.90;;;;;;6154461;28;85808;-60
2022/09/22 09:15:48;;;;;;;98.40;40.05;;;21.70;58.00;;;;;;6176094;28;83109;-59
2022/09/22 09:18:49;;;;;;;95.18;35.95;;;21.70;58.30;;;;;;6172603;28;82990;-59
2022/09/22 09:21:50;;;;;;;95.78;35.75;;;21.70;58.50;;;;;;6175230;28;83287;-59
2022/09/22 09:24:50;;;;;;;85.57;34.00;;;21.80;58.50;;;;;;6165342;28;90660;-60
2022/09/22 09:27:51;;;;;;;86.80;31.55;;;21.80;58.40;;;;;;6155542;28;83307;-59
2022/09/22 09:30:52;;;;;;;83.82;29.67;;;21.90;58.50;;;;;;6136902;28;85093;-58
2022/09/22 09:33:52;;;;;;;77.93;29.10;;;21.90;58.60;;;;;;6150114;28;83032;-59
2022/09/22 09:36:54;;;;;;;65.03;26.38;;;22.00;58.60;;;;;;6161528;28;83917;-59
2022/09/22 09:39:54;;;;;;;64.13;25.88;;;22.00;58.50;;;;;;6153578;28;83106;-58
2022/09/22 09:42:55;;;;;;;61.95;26.38;;;22.10;58.60;;;;;;6148336;28;82971;-59
2022/09/22 09:45:56;;;;;;;64.15;23.70;;;22.10;58.40;;;;;;6156157;28;83703;-59
2022/09/22 09:48:59;;;;;;;61.78;24.60;;;22.20;58.40;;;;;;6162334;28;83105;-58
2022/09/22 09:51:59;;;;;;;64.38;21.73;;;22.20;58.60;;;;;;6161930;28;83167;-58
2022/09/22 09:55:00;;;;;;;56.00;22.55;;;22.20;58.40;;;;;;6155803;28;85874;-58
2022/09/22 09:58:00;;;;;;;51.03;21.55;;;22.30;58.10;;;;;;6170436;28;84668;-58
2022/09/22 10:01:01;;;;;;;48.55;19.90;;;22.30;57.90;;;;;;6165449;28;82954;-58
2022/09/22 10:04:02;;;;;;;49.72;18.80;;;22.30;57.90;;;;;;6168836;28;83515;-59
2022/09/22 10:07:02;;;;;;;40.50;15.73;;;22.30;57.80;;;;;;6169711;28;88592;-59
2022/09/22 10:10:03;;;;;;;40.92;16.92;;;22.30;57.70;;;;;;6165592;28;84077;-58
2022/09/22 10:13:03;;;;;;;45.10;17.42;;;22.20;57.60;;;;;;6159812;28;82812;-58
2022/09/22 10:16:04;;;;;;;43.67;17.10;;;22.20;57.60;;;;;;6176096;28;82905;-59
2022/09/22 10:19:05;;;;;;;53.50;17.65;;;22.20;57.50;;;;;;6170591;28;90241;-61
2022/09/22 10:22:05;;;;;;;47.10;17.92;;;22.10;57.90;;;;;;6157021;28;88088;-58
2022/09/22 10:25:06;;;;;;;59.83;20.70;;;22.10;58.00;;;;;;6173981;28;83466;-56
2022/09/22 10:28:08;;;;;;;66.82;20.27;;;22.00;58.30;;;;;;6154380;28;89382;-57
2022/09/22 10:31:09;;;;;;;61.40;20.05;;;22.00;58.90;;;;;;6158817;28;86774;-56
2022/09/22 10:34:09;;;;;;;68.40;20.48;;;21.90;59.30;;;;;;6157124;28;83184;-57
2022/09/22 10:37:10;;;;;;;72.18;22.73;;;21.90;59.80;;;;;;6175625;28;84331;-57
2022/09/22 10:40:11;;;;;;;66.32;23.77;;;21.90;60.10;;;;;;6149095;28;85405;-49
2022/09/22 10:43:12;;;;;;;79.38;22.85;;;21.90;60.40;;;;;;6162850;28;82829;-51
2022/09/22 10:46:15;;;;;;;68.95;25.42;;;21.90;60.70;;;;;;6156083;28;87272;-56
2022/09/22 10:49:15;;;;;;;101.43;24.63;;;21.90;61.00;;;;;;6156839;28;84002;-51
2022/09/22 10:52:16;;;;;;;95.20;25.30;;;22.00;61.70;;;;;;6152870;28;83566;-52
2022/09/22 10:55:17;;;;;;;91.43;26.88;;;22.00;61.60;;;;;;6168178;28;82887;-52
2022/09/22 10:58:17;;;;;;;93.97;26.58;;;22.10;61.80;;;;;;6172434;28;82675;-57
2022/09/22 11:01:18;;;;;;;93.80;28.63;;;22.20;61.60;;;;;;6166772;28;84748;-58
2022/09/22 11:04:18;;;;;;;100.60;29.23;;;22.20;61.70;;;;;;6151822;28;82968;-58
2022/09/22 11:13:57;;;;;;;104.63;29.25;;;22.20;61.70;;;;;;6159059;28;84856;-59
2022/09/22 11:16:58;;;;;;;107.13;32.53;;;22.20;61.80;;;;;;6161478;28;83406;-58
2022/09/22 11:19:58;;;;;;;112.15;32.92;;;22.20;62.10;;;;;;6171348;28;86488;-58
2022/09/22 11:22:59;;;;;;;91.30;30.05;;;22.20;62.40;;;;;;6173526;28;82902;-59
2022/09/22 11:26:00;;;;;;;84.75;28.52;;;22.20;61.80;;;;;;6176736;28;84363;-59
2022/09/22 11:29:04;;;;;;;95.45;28.17;;;22.10;61.60;;;;;;6164018;28;87717;-58
2022/09/22 11:32:04;;;;;;;83.05;25.80;;;21.90;61.80;;;;;;6167173;28;83072;-58
2022/09/22 11:35:05;;;;;;;65.50;21.83;;;21.90;61.80;;;;;;6175915;28;84169;-52
2022/09/22 11:38:08;;;;;;;55.17;22.95;;;21.90;61.80;;;;;;6173919;28;83255;-49
2022/09/22 11:41:10;;;;;;;59.03;20.55;;;21.80;61.50;;;;;;6166671;28;85760;-52
2022/09/22 11:44:10;;;;;;;61.90;18.73;;;21.80;61.50;;;;;;6171840;28;83902;-53
2022/09/22 11:47:11;;;;;;;55.78;18.23;;;21.80;61.30;;;;;;6169393;28;83074;-53
2022/09/22 11:50:11;;;;;;;49.20;16.52;;;21.70;61.20;;;;;;6171822;28;88243;-49
2022/09/22 11:53:12;;;;;;;38.35;16.13;;;21.70;61.10;;;;;;6172196;28;85570;-54
2022/09/22 11:56:12;;;;;;;36.25;14.18;;;21.70;61.00;;;;;;6168397;28;86428;-55
2022/09/22 11:59:13;;;;;;;32.65;13.65;;;21.70;61.00;;;;;;6175730;28;83478;-55
2022/09/22 12:02:16;;;;;;;32.42;12.85;;;21.70;61.30;;;;;;6165941;28;90444;-55
2022/09/22 12:05:16;;;;;;;28.77;10.27;;;21.80;61.10;;;;;;6159465;28;83116;-56
2022/09/22 12:08:17;;;;;;;22.25;10.48;;;21.90;60.50;;;;;;6170570;28;83136;-56
2022/09/22 12:11:19;;;;;;;31.00;12.07;;;22.00;60.50;;;;;;6175432;28;82882;-49
2022/09/22 12:14:19;;;;;;;19.75;9.18;;;22.00;60.60;;;;;;6164619;28;83034;-52
2022/09/22 12:17:20;;;;;;;24.77;9.18;;;22.00;60.30;;;;;;6158552;28;86403;-52
2022/09/22 12:20:21;;;;;;;29.45;9.95;;;22.00;60.10;;;;;;6163444;28;81015;-51
2022/09/22 12:23:21;;;;;;;19.83;8.18;;;22.00;60.20;;;;;;6158556;28;80839;-53
2022/09/22 12:26:22;;;;;;;15.30;6.53;;;21.90;59.90;;;;;;6159439;28;80251;-50
2022/09/22 12:29:22;;;;;;;19.70;7.47;;;21.90;59.90;;;;;;6154833;28;80340;-52
2022/09/22 12:32:23;;;;;;;15.52;7.25;;;22.00;59.70;;;;;;6150730;28;85070;-50
2022/09/22 12:35:24;;;;;;;12.77;6.07;;;22.00;60.00;;;;;;6154077;28;80587;-53
2022/09/22 12:38:24;;;;;;;13.45;5.40;;;22.00;59.30;;;;;;6156899;28;80472;-53
2022/09/22 12:41:25;;;;;;;12.52;5.32;;;22.00;59.20;;;;;;6158508;28;80868;-51
2022/09/22 12:44:25;;;;;;;16.80;4.85;;;22.00;59.00;;;;;;6154240;28;80378;-49
2022/09/22 12:47:26;;;;;;;8.02;4.70;;;22.00;58.80;;;;;;6172833;28;80451;-54
2022/09/22 12:50:26;;;;;;;11.70;4.50;;;22.00;58.80;;;;;;6168348;28;81249;-50
2022/09/22 12:53:27;;;;;;;10.88;4.22;;;22.10;58.70;;;;;;6170006;28;82659;-48
2022/09/22 12:56:28;;;;;;;8.88;4.15;;;22.10;58.70;;;;;;6176315;28;83483;-50
2022/09/22 12:59:29;;;;;;;8.98;4.07;;;22.00;58.80;;;;;;6162844;28;84733;-51
2022/09/22 13:02:29;;;;;;;11.27;4.13;;;22.10;58.90;;;;;;6168759;28;80915;-52
2022/09/22 13:05:30;;;;;;;7.22;3.63;;;22.00;59.00;;;;;;6162883;28;81399;-53
2022/09/22 13:08:30;;;;;;;10.38;3.67;;;22.00;58.90;;;;;;6164675;28;81258;-53
2022/09/22 13:11:31;;;;;;;8.57;3.20;;;22.00;58.70;;;;;;6166422;28;86399;-49
2022/09/22 13:14:31;;;;;;;8.50;3.42;;;21.90;58.60;;;;;;6161395;28;80432;-49
2022/09/22 13:17:32;;;;;;;6.32;2.85;;;22.00;58.50;;;;;;6177605;28;81218;-48
2022/09/22 13:20:33;;;;;;;5.82;3.13;;;21.90;58.40;;;;;;6173367;28;85719;-52
2022/09/22 13:23:33;;;;;;;3.53;2.63;;;21.90;58.00;;;;;;6179312;28;81830;-51
2022/09/22 13:26:34;;;;;;;6.72;2.95;;;22.00;57.90;;;;;;6176591;28;82508;-50
2022/09/22 13:29:35;;;;;;;7.88;3.03;;;22.00;57.80;;;;;;6160349;28;84743;-53
2022/09/22 13:32:35;;;;;;;4.20;2.97;;;22.00;57.20;;;;;;6174432;28;81327;-49
2022/09/22 13:35:36;;;;;;;91.18;37.47;;;22.10;57.50;;;;;;6173001;28;80454;-49
2022/09/22 13:38:37;;;;;;;170.57;71.20;;;22.10;57.20;;;;;;6177402;28;82845;-51
2022/09/22 13:41:37;;;;;;;181.50;75.57;;;22.20;57.20;;;;;;6161614;28;86289;-56
2022/09/22 13:44:38;;;;;;;170.10;67.32;;;22.20;57.10;;;;;;6169013;28;85259;-60
2022/09/22 13:47:39;;;;;;;137.90;58.33;;;22.10;57.00;;;;;;6167969;28;84566;-61
2022/09/22 13:50:40;;;;;;;144.93;56.83;;;22.10;56.80;;;;;;6174719;28;82836;-61
2022/09/22 13:53:40;;;;;;;128.93;51.88;;;22.10;57.10;;;;;;6172539;28;84570;-63
2022/09/22 13:56:41;;;;;;;104.82;42.65;;;22.00;57.70;;;;;;6174330;28;83389;-59
2022/09/22 13:59:41;;;;;;;108.78;41.40;;;22.10;56.90;;;;;;6174016;28;83690;-60
2022/09/22 14:02:42;;;;;;;84.45;34.88;;;22.10;57.00;;;;;;6168542;28;83008;-60
2022/09/22 14:05:42;;;;;;;76.30;30.05;;;22.00;57.00;;;;;;6158616;28;86148;-61
2022/09/22 14:08:43;;;;;;;71.05;28.85;;;22.00;56.90;;;;;;6172057;28;82960;-60
2022/09/22 14:11:43;;;;;;;70.60;26.38;;;22.00;57.00;;;;;;6166021;28;85874;-61
2022/09/22 14:14:44;;;;;;;58.50;23.48;;;21.90;56.70;;;;;;6173296;28;83413;-59
2022/09/22 14:17:44;;;;;;;50.60;21.92;;;21.90;56.70;;;;;;6168325;28;84363;-57
2022/09/22 14:20:44;;;;;;;45.28;19.35;;;21.90;56.70;;;;;;6171447;28;86451;-59
2022/09/22 14:23:45;;;;;;;35.63;15.63;;;21.90;57.40;;;;;;6186716;28;83410;-59
2022/09/22 14:26:45;;;;;;;43.88;17.52;;;21.80;57.00;;;;;;6171821;28;83471;-61
2022/09/22 14:29:46;;;;;;;46.72;14.55;;;21.90;57.10;;;;;;6166361;28;89257;-60
2022/09/22 14:32:46;;;;;;;30.55;13.43;;;21.90;57.00;;;;;;6149534;28;83037;-61
2022/09/22 14:35:48;;;;;;;24.33;11.20;;;21.80;56.80;;;;;;6171922;28;83480;-59
2022/09/22 14:38:48;;;;;;;24.25;11.25;;;21.80;56.90;;;;;;6182864;28;84662;-49
2022/09/22 14:41:49;;;;;;;31.13;10.27;;;21.80;57.10;;;;;;6159140;28;83169;-51
2022/09/22 14:44:50;;;;;;;30.83;10.95;;;21.80;57.10;;;;;;6161535;28;89936;-47
2022/09/22 14:47:51;;;;;;;24.20;9.57;;;21.80;57.60;;;;;;6159509;28;83317;-50
2022/09/22 14:50:53;;;;;;;16.17;8.02;;;21.70;57.60;;;;;;6186399;28;82976;-52
2022/09/22 14:53:54;;;;;;;20.50;8.25;;;21.70;58.10;;;;;;6156892;28;85008;-50
2022/09/22 14:56:54;;;;;;;18.85;8.13;;;21.70;58.40;;;;;;6155890;28;80905;-51
2022/09/22 15:03:14;;;;;;;17.55;7.05;;;21.70;58.50;;;;;;6152165;28;80579;-52
2022/09/22 15:06:15;;;;;;;21.58;6.75;;;21.70;58.60;;;;;;6147975;28;80506;-51
2022/09/22 15:09:15;;;;;;;9.18;5.45;;;21.70;58.50;;;;;;6150301;28;81593;-53
2022/09/22 15:12:16;;;;;;;12.63;5.60;;;21.80;58.40;;;;;;6148167;28;82041;-53
2022/09/22 15:15:16;;;;;;;9.60;5.70;;;21.70;58.50;;;;;;6160836;28;80481;-51
2022/09/22 15:18:18;;;;;;;12.73;5.10;;;21.80;58.40;;;;;;6159618;28;81246;-50
2022/09/22 15:21:27;;;;;;;14.43;5.05;;;21.70;58.50;;;;;;6161303;28;80627;-51
2022/09/22 15:24:28;;;;;;;8.73;4.32;;;21.80;58.50;;;;;;6154672;28;85019;-55
2022/09/22 15:27:29;;;;;;;10.45;4.00;;;21.80;58.30;;;;;;6156484;28;80437;-54
2022/09/22 15:30:31;;;;;;;11.82;4.47;;;21.70;58.30;;;;;;6161941;28;81067;-55
2022/09/22 15:33:31;;;;;;;7.63;4.32;;;21.70;58.40;;;;;;6157619;28;80430;-50
2022/09/22 15:36:32;;;;;;;7.68;3.75;;;21.80;58.60;;;;;;6169098;28;80592;-55
2022/09/22 15:39:32;;;;;;;7.85;4.07;;;21.80;58.90;;;;;;6180279;28;80947;-51
2022/09/22 15:42:34;;;;;;;10.15;3.38;;;21.80;58.70;;;;;;6181214;28;85436;-55
2022/09/22 15:45:34;;;;;;;6.40;3.50;;;21.80;58.40;;;;;;6178240;28;80675;-53
2022/09/22 15:48:37;;;;;;;6.90;2.92;;;21.70;58.60;;;;;;6163896;28;80245;-52
2022/09/22 15:51:38;;;;;;;5.82;3.58;;;21.70;59.30;;;;;;6156423;28;80607;-50
2022/09/22 15:54:38;;;;;;;8.15;3.65;;;21.70;59.60;;;;;;6156153;28;83848;-51
2022/09/22 15:57:41;;;;;;;6.90;3.10;;;21.70;59.60;;;;;;6154609;28;81324;-50
2022/09/22 16:00:41;;;;;;;7.78;3.42;;;21.70;59.80;;;;;;6163801;28;80093;-54
2022/09/22 16:03:42;;;;;;;6.78;3.40;;;21.70;59.80;;;;;;6162221;28;80866;-52